sensor_id;sensor_type;location;lat;lon;timestamp;pressure;altitude;pressure_sealevel;temperature;humidity
53874;BME280;62246;50.938;4.058;2022-12-29T00:01:52;100206.13;;;10.21;100.00
53874;BME280;62246;50.938;4.058;2022-12-29T00:04:18;100188.69;;;10.18;100.00
53874;BME280;62246;50.938;4.058;2022-12-29T00:06:44;100192.31;;;10.17;100.00
53874;BME280;62246;50.938;4.058;2022-12-29T00:09:14;100191.09;;;10.22;100.00
53874;BME280;62246;50.938;4.058;2022-12-29T00:11:40;100180.97;;;10.27;100.00
53874;BME280;62246;50.938;4.058;2022-12-29T00:14:06;100181.78;;;10.27;100.00
53874;BME280;62246;50.938;4.058;2022-12-29T00:16:49;100196.84;;;10.27;100.00
53874;BME280;62246;50.938;4.058;2022-12-29T00:19:15;100166.22;;;10.45;100.00
53874;BME280;62246;50.938;4.058;2022-12-29T00:21:59;100170.09;;;10.41;100.00
53874;BME280;62246;50.938;4.058;2022-12-29T00:24:46;100182.78;;;10.47;100.00
53874;BME280;62246;50.938;4.058;2022-12-29T00:27:30;100178.59;;;10.45;100.00
53874;BME280;62246;50.938;4.058;2022-12-29T00:30:20;100171.50;;;10.45;99.63
53874;BME280;62246;50.938;4.058;2022-12-29T00:36:03;100174.47;;;10.52;97.82
53874;BME280;62246;50.938;4.058;2022-12-29T00:38:31;100168.31;;;10.52;97.18
53874;BME280;62246;50.938;4.058;2022-12-29T00:41:16;100173.50;;;10.53;96.96
53874;BME280;62246;50.938;4.058;2022-12-29T00:44:01;100174.63;;;10.60;95.21
53874;BME280;62246;50.938;4.058;2022-12-29T00:46:32;100172.56;;;10.64;95.19
53874;BME280;62246;50.938;4.058;2022-12-29T00:48:58;100175.22;;;10.64;94.41
53874;BME280;62246;50.938;4.058;2022-12-29T00:51:42;100188.47;;;10.64;94.53
53874;BME280;62246;50.938;4.058;2022-12-29T00:54:08;100180.38;;;10.65;94.48
53874;BME280;62246;50.938;4.058;2022-12-29T00:56:34;100179.09;;;10.60;95.50
53874;BME280;62246;50.938;4.058;2022-12-29T00:59:08;100181.22;;;10.66;94.59
53874;BME280;62246;50.938;4.058;2022-12-29T01:01:34;100179.16;;;10.70;93.42
53874;BME280;62246;50.938;4.058;2022-12-29T01:04:00;100185.41;;;10.69;94.12
53874;BME280;62246;50.938;4.058;2022-12-29T01:06:25;100185.09;;;10.62;94.31
53874;BME280;62246;50.938;4.058;2022-12-29T01:08:51;100170.44;;;10.58;94.94
53874;BME280;62246;50.938;4.058;2022-12-29T01:11:38;100174.34;;;10.54;95.23
53874;BME280;62246;50.938;4.058;2022-12-29T01:14:04;100195.63;;;10.52;96.66
53874;BME280;62246;50.938;4.058;2022-12-29T01:16:31;100179.31;;;10.47;96.47
53874;BME280;62246;50.938;4.058;2022-12-29T01:18:57;100184.28;;;10.40;98.19
53874;BME280;62246;50.938;4.058;2022-12-29T01:21:22;100178.31;;;10.27;100.00
53874;BME280;62246;50.938;4.058;2022-12-29T01:23:48;100173.81;;;10.17;100.00
53874;BME280;62246;50.938;4.058;2022-12-29T01:26:15;100203.72;;;10.18;100.00
53874;BME280;62246;50.938;4.058;2022-12-29T01:28:41;100185.09;;;10.20;100.00
53874;BME280;62246;50.938;4.058;2022-12-29T01:31:08;100172.13;;;10.16;100.00
53874;BME280;62246;50.938;4.058;2022-12-29T01:33:34;100169.81;;;10.23;99.57
53874;BME280;62246;50.938;4.058;2022-12-29T01:36:05;100168.97;;;10.23;100.00
53874;BME280;62246;50.938;4.058;2022-12-29T01:38:31;100179.66;;;10.21;100.00
53874;BME280;62246;50.938;4.058;2022-12-29T01:40:56;100183.53;;;10.17;100.00
53874;BME280;62246;50.938;4.058;2022-12-29T01:46:04;100161.69;;;10.15;100.00
53874;BME280;62246;50.938;4.058;2022-12-29T01:48:29;100183.94;;;10.12;100.00
53874;BME280;62246;50.938;4.058;2022-12-29T01:50:55;100184.91;;;10.11;100.00
53874;BME280;62246;50.938;4.058;2022-12-29T01:53:30;100183.34;;;10.09;100.00
53874;BME280;62246;50.938;4.058;2022-12-29T01:56:02;100173.59;;;10.09;100.00
53874;BME280;62246;50.938;4.058;2022-12-29T01:58:34;100180.97;;;10.06;100.00
53874;BME280;62246;50.938;4.058;2022-12-29T02:01:03;100183.38;;;9.97;100.00
53874;BME280;62246;50.938;4.058;2022-12-29T02:03:30;100179.75;;;10.10;99.74
53874;BME280;62246;50.938;4.058;2022-12-29T02:06:02;100164.25;;;10.05;99.18
53874;BME280;62246;50.938;4.058;2022-12-29T02:08:29;100172.69;;;9.99;99.61
53874;BME280;62246;50.938;4.058;2022-12-29T02:10:56;100173.94;;;9.95;100.00
53874;BME280;62246;50.938;4.058;2022-12-29T02:13:26;100174.03;;;9.93;99.49
53874;BME280;62246;50.938;4.058;2022-12-29T02:16:05;100168.28;;;9.88;100.00
53874;BME280;62246;50.938;4.058;2022-12-29T02:18:41;100167.94;;;9.81;100.00
53874;BME280;62246;50.938;4.058;2022-12-29T02:21:34;100167.50;;;9.76;100.00
53874;BME280;62246;50.938;4.058;2022-12-29T02:35:05;100159.75;;;9.63;100.00
53874;BME280;62246;50.938;4.058;2022-12-29T02:37:44;100153.88;;;9.60;100.00
53874;BME280;62246;50.938;4.058;2022-12-29T02:40:36;100150.63;;;9.56;100.00
53874;BME280;62246;50.938;4.058;2022-12-29T02:43:25;100136.19;;;9.60;100.00
53874;BME280;62246;50.938;4.058;2022-12-29T02:45:59;100132.59;;;9.61;100.00
53874;BME280;62246;50.938;4.058;2022-12-29T02:48:36;100128.28;;;9.60;100.00
53874;BME280;62246;50.938;4.058;2022-12-29T02:51:19;100132.59;;;9.61;99.28
53874;BME280;62246;50.938;4.058;2022-12-29T02:53:46;100131.78;;;9.61;99.48
53874;BME280;62246;50.938;4.058;2022-12-29T02:56:30;100138.16;;;9.58;99.23
53874;BME280;62246;50.938;4.058;2022-12-29T02:58:56;100130.22;;;9.58;98.86
53874;BME280;62246;50.938;4.058;2022-12-29T03:10:30;100142.97;;;9.53;97.06
53874;BME280;62246;50.938;4.058;2022-12-29T03:15:55;100151.16;;;9.50;95.36
53874;BME280;62246;50.938;4.058;2022-12-29T03:18:50;100150.88;;;9.53;95.04
53874;BME280;62246;50.938;4.058;2022-12-29T03:21:45;100174.41;;;9.56;94.29
53874;BME280;62246;50.938;4.058;2022-12-29T03:24:34;100166.75;;;9.53;94.46
53874;BME280;62246;50.938;4.058;2022-12-29T03:27:01;100184.78;;;9.48;94.18
53874;BME280;62246;50.938;4.058;2022-12-29T03:29:30;100172.03;;;9.53;94.27
53874;BME280;62246;50.938;4.058;2022-12-29T03:31:59;100180.56;;;9.45;93.87
53874;BME280;62246;50.938;4.058;2022-12-29T03:34:27;100176.84;;;9.48;93.32
53874;BME280;62246;50.938;4.058;2022-12-29T03:37:02;100173.38;;;9.47;92.91
53874;BME280;62246;50.938;4.058;2022-12-29T03:39:30;100189.47;;;9.44;92.62
53874;BME280;62246;50.938;4.058;2022-12-29T03:42:01;100195.00;;;9.41;92.24
53874;BME280;62246;50.938;4.058;2022-12-29T03:44:46;100182.16;;;9.37;92.13
53874;BME280;62246;50.938;4.058;2022-12-29T03:47:13;100184.78;;;9.37;91.69
53874;BME280;62246;50.938;4.058;2022-12-29T03:49:39;100182.53;;;9.43;90.97
53874;BME280;62246;50.938;4.058;2022-12-29T03:52:05;100177.22;;;9.43;90.60
53874;BME280;62246;50.938;4.058;2022-12-29T03:54:31;100175.56;;;9.31;91.28
53874;BME280;62246;50.938;4.058;2022-12-29T03:56:56;100156.84;;;9.34;90.10
53874;BME280;62246;50.938;4.058;2022-12-29T03:59:22;100162.22;;;9.32;89.84
53874;BME280;62246;50.938;4.058;2022-12-29T04:01:47;100169.56;;;9.29;90.14
53874;BME280;62246;50.938;4.058;2022-12-29T04:04:12;100171.63;;;9.25;90.04
53874;BME280;62246;50.938;4.058;2022-12-29T04:06:38;100167.91;;;9.28;90.01
53874;BME280;62246;50.938;4.058;2022-12-29T04:09:04;100184.56;;;9.28;89.90
53874;BME280;62246;50.938;4.058;2022-12-29T04:11:30;100188.06;;;9.29;89.66
53874;BME280;62246;50.938;4.058;2022-12-29T04:13:55;100194.66;;;9.23;90.31
53874;BME280;62246;50.938;4.058;2022-12-29T04:16:20;100177.50;;;9.17;90.65
53874;BME280;62246;50.938;4.058;2022-12-29T04:18:46;100183.41;;;9.21;90.51
53874;BME280;62246;50.938;4.058;2022-12-29T04:21:12;100198.03;;;9.25;90.45
53874;BME280;62246;50.938;4.058;2022-12-29T04:23:39;100196.09;;;9.27;90.69
53874;BME280;62246;50.938;4.058;2022-12-29T04:26:05;100190.81;;;9.27;90.61
53874;BME280;62246;50.938;4.058;2022-12-29T04:28:35;100204.63;;;9.31;90.83
53874;BME280;62246;50.938;4.058;2022-12-29T04:31:02;100189.50;;;9.33;90.86
53874;BME280;62246;50.938;4.058;2022-12-29T04:33:28;100186.97;;;9.31;91.25
53874;BME280;62246;50.938;4.058;2022-12-29T04:35:53;100203.53;;;9.33;91.08
53874;BME280;62246;50.938;4.058;2022-12-29T04:38:20;100201.84;;;9.32;91.31
53874;BME280;62246;50.938;4.058;2022-12-29T04:40:46;100191.28;;;9.32;91.88
53874;BME280;62246;50.938;4.058;2022-12-29T04:43:12;100197.16;;;9.36;91.79
53874;BME280;62246;50.938;4.058;2022-12-29T04:45:43;100219.97;;;9.37;92.20
53874;BME280;62246;50.938;4.058;2022-12-29T04:48:08;100208.13;;;9.31;92.21
53874;BME280;62246;50.938;4.058;2022-12-29T04:50:34;100210.84;;;9.30;92.34
53874;BME280;62246;50.938;4.058;2022-12-29T04:52:59;100204.63;;;9.31;92.14
53874;BME280;62246;50.938;4.058;2022-12-29T04:55:25;100195.47;;;9.35;91.64
53874;BME280;62246;50.938;4.058;2022-12-29T04:57:50;100216.47;;;9.48;90.82
53874;BME280;62246;50.938;4.058;2022-12-29T05:00:16;100217.09;;;9.40;90.21
53874;BME280;62246;50.938;4.058;2022-12-29T05:02:41;100223.72;;;9.34;90.82
53874;BME280;62246;50.938;4.058;2022-12-29T05:05:07;100221.91;;;9.35;91.00
53874;BME280;62246;50.938;4.058;2022-12-29T05:07:33;100215.19;;;9.31;90.31
53874;BME280;62246;50.938;4.058;2022-12-29T05:09:59;100218.44;;;9.34;90.63
53874;BME280;62246;50.938;4.058;2022-12-29T05:12:24;100227.78;;;9.27;91.07
53874;BME280;62246;50.938;4.058;2022-12-29T05:14:50;100220.59;;;9.29;91.06
53874;BME280;62246;50.938;4.058;2022-12-29T05:17:18;100222.16;;;9.32;90.80
53874;BME280;62246;50.938;4.058;2022-12-29T05:19:44;100228.38;;;9.31;91.15
53874;BME280;62246;50.938;4.058;2022-12-29T05:22:09;100233.66;;;9.31;91.20
53874;BME280;62246;50.938;4.058;2022-12-29T05:24:35;100217.94;;;9.29;91.43
53874;BME280;62246;50.938;4.058;2022-12-29T05:27:00;100211.72;;;9.30;91.36
53874;BME280;62246;50.938;4.058;2022-12-29T05:29:26;100224.19;;;9.28;91.41
53874;BME280;62246;50.938;4.058;2022-12-29T05:31:51;100206.09;;;9.24;91.50
53874;BME280;62246;50.938;4.058;2022-12-29T05:34:16;100222.63;;;9.26;90.80
53874;BME280;62246;50.938;4.058;2022-12-29T05:36:42;100217.47;;;9.24;90.63
53874;BME280;62246;50.938;4.058;2022-12-29T05:39:07;100245.19;;;9.30;90.04
53874;BME280;62246;50.938;4.058;2022-12-29T05:41:33;100238.72;;;9.34;89.76
53874;BME280;62246;50.938;4.058;2022-12-29T05:44:00;100229.00;;;9.34;89.38
53874;BME280;62246;50.938;4.058;2022-12-29T05:46:25;100238.72;;;9.34;89.76
53874;BME280;62246;50.938;4.058;2022-12-29T05:48:51;100235.09;;;9.35;89.40
53874;BME280;62246;50.938;4.058;2022-12-29T05:51:16;100240.16;;;9.38;88.81
53874;BME280;62246;50.938;4.058;2022-12-29T05:53:42;100237.88;;;9.33;88.94
53874;BME280;62246;50.938;4.058;2022-12-29T05:56:07;100254.59;;;9.34;88.76
53874;BME280;62246;50.938;4.058;2022-12-29T05:58:32;100246.53;;;9.36;88.20
53874;BME280;62246;50.938;4.058;2022-12-29T06:00:58;100247.09;;;9.39;87.20
53874;BME280;62246;50.938;4.058;2022-12-29T06:03:23;100256.97;;;9.37;87.13
53874;BME280;62246;50.938;4.058;2022-12-29T06:05:49;100251.31;;;9.42;86.79
53874;BME280;62246;50.938;4.058;2022-12-29T06:08:14;100257.44;;;9.42;86.99
53874;BME280;62246;50.938;4.058;2022-12-29T06:10:39;100260.22;;;9.41;87.25
53874;BME280;62246;50.938;4.058;2022-12-29T06:13:05;100268.50;;;9.36;87.39
53874;BME280;62246;50.938;4.058;2022-12-29T06:15:32;100277.03;;;9.40;86.78
53874;BME280;62246;50.938;4.058;2022-12-29T06:17:57;100278.31;;;9.45;86.66
53874;BME280;62246;50.938;4.058;2022-12-29T06:20:23;100280.28;;;9.43;86.51
53874;BME280;62246;50.938;4.058;2022-12-29T06:22:49;100281.44;;;9.39;86.95
53874;BME280;62246;50.938;4.058;2022-12-29T06:25:15;100277.50;;;9.45;85.76
53874;BME280;62246;50.938;4.058;2022-12-29T06:27:41;100281.94;;;9.44;85.31
53874;BME280;62246;50.938;4.058;2022-12-29T06:30:07;100281.22;;;9.42;85.71
53874;BME280;62246;50.938;4.058;2022-12-29T06:32:34;100284.00;;;9.41;85.86
53874;BME280;62246;50.938;4.058;2022-12-29T06:34:59;100280.97;;;9.45;85.01
53874;BME280;62246;50.938;4.058;2022-12-29T06:37:25;100283.63;;;9.45;84.74
53874;BME280;62246;50.938;4.058;2022-12-29T06:39:50;100278.47;;;9.44;85.54
53874;BME280;62246;50.938;4.058;2022-12-29T06:42:16;100277.50;;;9.45;84.89
53874;BME280;62246;50.938;4.058;2022-12-29T06:44:41;100287.22;;;9.44;84.89
53874;BME280;62246;50.938;4.058;2022-12-29T06:47:07;100292.16;;;9.49;84.81
53874;BME280;62246;50.938;4.058;2022-12-29T06:49:32;100285.53;;;9.55;84.34
53874;BME280;62246;50.938;4.058;2022-12-29T06:51:58;100297.19;;;9.52;84.43
53874;BME280;62246;50.938;4.058;2022-12-29T06:54:25;100286.72;;;9.50;83.52
53874;BME280;62246;50.938;4.058;2022-12-29T06:56:51;100286.13;;;9.47;84.16
53874;BME280;62246;50.938;4.058;2022-12-29T06:59:16;100285.31;;;9.46;83.65
53874;BME280;62246;50.938;4.058;2022-12-29T07:01:41;100292.16;;;9.49;82.64
53874;BME280;62246;50.938;4.058;2022-12-29T07:04:07;100291.16;;;9.61;82.16
53874;BME280;62246;50.938;4.058;2022-12-29T07:06:32;100277.81;;;9.63;81.03
53874;BME280;62246;50.938;4.058;2022-12-29T07:08:58;100292.72;;;9.64;81.46
53874;BME280;62246;50.938;4.058;2022-12-29T07:11:23;100292.72;;;9.64;81.71
53874;BME280;62246;50.938;4.058;2022-12-29T07:13:49;100299.09;;;9.61;81.59
53874;BME280;62246;50.938;4.058;2022-12-29T07:16:14;100294.19;;;9.57;81.72
53874;BME280;62246;50.938;4.058;2022-12-29T07:18:39;100294.53;;;9.52;82.06
53874;BME280;62246;50.938;4.058;2022-12-29T07:21:05;100301.97;;;9.47;82.06
53874;BME280;62246;50.938;4.058;2022-12-29T07:23:30;100311.47;;;9.49;81.00
53874;BME280;62246;50.938;4.058;2022-12-29T07:26:04;100298.63;;;9.56;80.18
53874;BME280;62246;50.938;4.058;2022-12-29T07:28:31;100327.47;;;9.59;79.36
53874;BME280;62246;50.938;4.058;2022-12-29T07:30:57;100300.78;;;9.62;79.41
53874;BME280;62246;50.938;4.058;2022-12-29T07:33:23;100308.84;;;9.61;79.20
53874;BME280;62246;50.938;4.058;2022-12-29T07:35:48;100308.31;;;9.67;79.02
53874;BME280;62246;50.938;4.058;2022-12-29T07:38:14;100294.41;;;9.65;79.29
53874;BME280;62246;50.938;4.058;2022-12-29T07:40:40;100311.09;;;9.65;79.63
53874;BME280;62246;50.938;4.058;2022-12-29T07:43:05;100315.06;;;9.71;78.87
53874;BME280;62246;50.938;4.058;2022-12-29T07:45:31;100309.19;;;9.67;78.85
53874;BME280;62246;50.938;4.058;2022-12-29T07:47:56;100295.72;;;9.71;78.11
53874;BME280;62246;50.938;4.058;2022-12-29T07:50:22;100308.94;;;9.71;78.08
53874;BME280;62246;50.938;4.058;2022-12-29T07:52:47;100322.75;;;9.74;77.68
53874;BME280;62246;50.938;4.058;2022-12-29T07:55:14;100323.00;;;9.71;77.67
53874;BME280;62246;50.938;4.058;2022-12-29T07:57:39;100330.56;;;9.76;77.01
53874;BME280;62246;50.938;4.058;2022-12-29T08:00:05;100334.28;;;9.84;77.02
53874;BME280;62246;50.938;4.058;2022-12-29T08:02:31;100333.81;;;9.79;77.42
53874;BME280;62246;50.938;4.058;2022-12-29T08:04:56;100329.72;;;9.75;76.95
53874;BME280;62246;50.938;4.058;2022-12-29T08:07:21;100338.72;;;9.73;77.68
53874;BME280;62246;50.938;4.058;2022-12-29T08:09:47;100334.41;;;9.72;78.06
53874;BME280;62246;50.938;4.058;2022-12-29T08:12:12;100346.06;;;9.69;78.24
53874;BME280;62246;50.938;4.058;2022-12-29T08:14:38;100333.81;;;9.68;78.32
53874;BME280;62246;50.938;4.058;2022-12-29T08:17:03;100340.66;;;9.71;77.95
53874;BME280;62246;50.938;4.058;2022-12-29T08:19:29;100330.06;;;9.71;77.41
53874;BME280;62246;50.938;4.058;2022-12-29T08:21:54;100340.66;;;9.71;77.55
53874;BME280;62246;50.938;4.058;2022-12-29T08:24:20;100343.06;;;9.74;76.79
53874;BME280;62246;50.938;4.058;2022-12-29T08:26:45;100336.09;;;9.73;76.82
53874;BME280;62246;50.938;4.058;2022-12-29T08:29:10;100334.03;;;9.76;76.10
53874;BME280;62246;50.938;4.058;2022-12-29T08:31:36;100357.94;;;9.75;76.84
53874;BME280;62246;50.938;4.058;2022-12-29T08:34:02;100364.31;;;9.72;77.96
53874;BME280;62246;50.938;4.058;2022-12-29T08:36:28;100375.59;;;9.63;80.35
53874;BME280;62246;50.938;4.058;2022-12-29T08:38:53;100383.19;;;9.56;79.39
53874;BME280;62246;50.938;4.058;2022-12-29T08:41:19;100358.31;;;9.59;79.84
53874;BME280;62246;50.938;4.058;2022-12-29T08:43:48;100377.66;;;9.48;79.78
53874;BME280;62246;50.938;4.058;2022-12-29T08:46:14;100373.91;;;9.39;80.45
53874;BME280;62246;50.938;4.058;2022-12-29T08:48:40;100394.09;;;9.40;81.27
53874;BME280;62246;50.938;4.058;2022-12-29T08:51:05;100408.75;;;9.44;81.12
53874;BME280;62246;50.938;4.058;2022-12-29T08:53:30;100413.16;;;9.32;82.50
53874;BME280;62246;50.938;4.058;2022-12-29T08:55:58;100415.09;;;9.30;82.92
53874;BME280;62246;50.938;4.058;2022-12-29T08:58:25;100434.50;;;9.18;85.09
53874;BME280;62246;50.938;4.058;2022-12-29T09:00:56;100431.59;;;8.98;86.16
53874;BME280;62246;50.938;4.058;2022-12-29T09:03:22;100433.00;;;8.91;87.97
53874;BME280;62246;50.938;4.058;2022-12-29T09:05:52;100441.28;;;8.87;88.50
53874;BME280;62246;50.938;4.058;2022-12-29T09:08:18;100449.38;;;8.83;89.19
53874;BME280;62246;50.938;4.058;2022-12-29T09:10:44;100453.09;;;8.81;88.53
53874;BME280;62246;50.938;4.058;2022-12-29T09:13:13;100460.81;;;8.84;88.89
53874;BME280;62246;50.938;4.058;2022-12-29T09:15:39;100467.16;;;8.81;89.07
53874;BME280;62246;50.938;4.058;2022-12-29T09:18:06;100463.44;;;8.84;88.79
53874;BME280;62246;50.938;4.058;2022-12-29T09:20:32;100482.75;;;8.84;88.30
53874;BME280;62246;50.938;4.058;2022-12-29T09:22:59;100481.69;;;8.87;87.82
53874;BME280;62246;50.938;4.058;2022-12-29T09:25:24;100480.75;;;8.88;88.30
53874;BME280;62246;50.938;4.058;2022-12-29T09:27:51;100482.19;;;8.92;87.29
53874;BME280;62246;50.938;4.058;2022-12-29T09:30:19;100485.41;;;8.84;88.39
53874;BME280;62246;50.938;4.058;2022-12-29T09:32:45;100498.22;;;8.78;89.21
53874;BME280;62246;50.938;4.058;2022-12-29T09:35:11;100493.72;;;8.67;91.23
53874;BME280;62246;50.938;4.058;2022-12-29T09:37:37;100500.72;;;8.55;92.78
53874;BME280;62246;50.938;4.058;2022-12-29T09:40:02;100506.22;;;8.52;92.62
53874;BME280;62246;50.938;4.058;2022-12-29T09:42:35;100514.13;;;8.52;92.97
53874;BME280;62246;50.938;4.058;2022-12-29T09:47:32;100524.03;;;8.61;90.91
53874;BME280;62246;50.938;4.058;2022-12-29T09:50:05;100519.56;;;8.75;91.00
53874;BME280;62246;50.938;4.058;2022-12-29T09:52:44;100529.56;;;8.82;89.10
53874;BME280;62246;50.938;4.058;2022-12-29T09:55:16;100516.09;;;8.98;87.56
53874;BME280;62246;50.938;4.058;2022-12-29T09:57:49;100520.94;;;9.16;86.13
53874;BME280;62246;50.938;4.058;2022-12-29T10:00:21;100528.53;;;9.21;84.77
53874;BME280;62246;50.938;4.058;2022-12-29T10:02:59;100540.72;;;9.34;84.18
53874;BME280;62246;50.938;4.058;2022-12-29T10:08:47;100554.53;;;9.38;83.97
53874;BME280;62246;50.938;4.058;2022-12-29T10:22:28;100560.28;;;9.67;82.08
53874;BME280;62246;50.938;4.058;2022-12-29T10:24:58;100560.53;;;9.76;81.67
53874;BME280;62246;50.938;4.058;2022-12-29T10:27:31;100558.75;;;9.88;80.62
53874;BME280;62246;50.938;4.058;2022-12-29T10:29:59;100565.25;;;9.83;80.15
53874;BME280;62246;50.938;4.058;2022-12-29T10:32:39;100560.19;;;9.80;80.54
53874;BME280;62246;50.938;4.058;2022-12-29T10:35:33;100576.22;;;10.02;79.60
53874;BME280;62246;50.938;4.058;2022-12-29T10:41:11;100571.53;;;10.05;77.79
53874;BME280;62246;50.938;4.058;2022-12-29T10:46:11;100585.69;;;9.93;77.71
53874;BME280;62246;50.938;4.058;2022-12-29T10:48:38;100581.03;;;10.08;77.98
53874;BME280;62246;50.938;4.058;2022-12-29T10:51:08;100593.28;;;10.09;77.12
53874;BME280;62246;50.938;4.058;2022-12-29T10:53:45;100582.75;;;10.20;77.28
53874;BME280;62246;50.938;4.058;2022-12-29T10:56:28;100582.59;;;10.10;77.21
53874;BME280;62246;50.938;4.058;2022-12-29T10:58:54;100597.13;;;10.05;77.51
53874;BME280;62246;50.938;4.058;2022-12-29T11:01:22;100595.69;;;10.00;77.87
53874;BME280;62246;50.938;4.058;2022-12-29T11:03:50;100606.38;;;9.99;78.53
53874;BME280;62246;50.938;4.058;2022-12-29T11:06:27;100593.75;;;9.91;79.16
53874;BME280;62246;50.938;4.058;2022-12-29T11:09:09;100604.31;;;9.91;79.60
53874;BME280;62246;50.938;4.058;2022-12-29T11:11:37;100598.88;;;9.81;79.09
53874;BME280;62246;50.938;4.058;2022-12-29T11:14:17;100604.78;;;9.85;79.56
53874;BME280;62246;50.938;4.058;2022-12-29T11:16:43;100619.25;;;9.92;78.86
53874;BME280;62246;50.938;4.058;2022-12-29T11:19:24;100609.28;;;10.07;78.04
53874;BME280;62246;50.938;4.058;2022-12-29T11:21:51;100627.91;;;10.06;77.56
53874;BME280;62246;50.938;4.058;2022-12-29T11:24:28;100627.81;;;10.07;77.79
53874;BME280;62246;50.938;4.058;2022-12-29T11:26:56;100636.69;;;10.06;77.33
53874;BME280;62246;50.938;4.058;2022-12-29T11:29:38;100643.91;;;10.04;77.67
53874;BME280;62246;50.938;4.058;2022-12-29T11:34:37;100635.72;;;10.07;nan
53874;BME280;62246;50.938;4.058;2022-12-29T11:37:16;100633.91;;;9.96;78.15
53874;BME280;62246;50.938;4.058;2022-12-29T11:39:58;100649.53;;;9.99;78.74
53874;BME280;62246;50.938;4.058;2022-12-29T11:42:48;100643.75;;;9.94;79.55
53874;BME280;62246;50.938;4.058;2022-12-29T11:45:22;100643.75;;;9.94;79.96
53874;BME280;62246;50.938;4.058;2022-12-29T11:48:06;100640.53;;;10.02;78.91
53874;BME280;62246;50.938;4.058;2022-12-29T11:50:37;100632.97;;;10.09;78.90
53874;BME280;62246;50.938;4.058;2022-12-29T11:56:17;100645.84;;;10.13;78.98
53874;BME280;62246;50.938;4.058;2022-12-29T11:58:45;100643.91;;;10.04;79.15
53874;BME280;62246;50.938;4.058;2022-12-29T12:01:17;100642.09;;;10.05;79.93
53874;BME280;62246;50.938;4.058;2022-12-29T12:03:47;100647.88;;;10.10;79.14
53874;BME280;62246;50.938;4.058;2022-12-29T12:06:19;100650.66;;;10.08;78.57
53874;BME280;62246;50.938;4.058;2022-12-29T12:08:59;100651.34;;;9.99;77.66
53874;BME280;62246;50.938;4.058;2022-12-29T12:11:34;100637.25;;;9.87;78.25
53874;BME280;62246;50.938;4.058;2022-12-29T12:14:23;100652.72;;;9.80;79.23
53874;BME280;62246;50.938;4.058;2022-12-29T12:16:59;100639.72;;;9.77;78.93
53874;BME280;62246;50.938;4.058;2022-12-29T12:19:59;100645.38;;;9.84;78.84
53874;BME280;62246;50.938;4.058;2022-12-29T12:22:31;100644.19;;;9.88;78.46
53874;BME280;62246;50.938;4.058;2022-12-29T12:27:52;100642.28;;;9.90;79.17
53874;BME280;62246;50.938;4.058;2022-12-29T12:30:23;100644.94;;;9.90;78.90
53874;BME280;62246;50.938;4.058;2022-12-29T12:32:59;100655.25;;;9.82;78.40
53874;BME280;62246;50.938;4.058;2022-12-29T12:41:26;100653.41;;;9.71;81.42
53874;BME280;62246;50.938;4.058;2022-12-29T12:50:06;100653.50;;;9.94;80.74
53874;BME280;62246;50.938;4.058;2022-12-29T12:53:04;100647.81;;;13.44;67.25
53874;BME280;62246;50.938;4.058;2022-12-29T12:55:56;100662.41;;;11.84;70.38
53874;BME280;62246;50.938;4.058;2022-12-29T13:12:02;100678.38;;;10.38;79.74
53874;BME280;62246;50.938;4.058;2022-12-29T13:17:42;100681.06;;;9.78;80.67
53874;BME280;62246;50.938;4.058;2022-12-29T13:25:45;100672.38;;;9.65;79.80
53874;BME280;62246;50.938;4.058;2022-12-29T13:31:00;100674.25;;;9.63;77.43
53874;BME280;62246;50.938;4.058;2022-12-29T13:36:58;100658.53;;;9.86;76.35
53874;BME280;62246;50.938;4.058;2022-12-29T13:39:33;100671.25;;;9.92;76.34
53874;BME280;62246;50.938;4.058;2022-12-29T13:42:01;100663.81;;;9.61;78.61
53874;BME280;62246;50.938;4.058;2022-12-29T13:44:34;100695.41;;;9.63;79.63
53874;BME280;62246;50.938;4.058;2022-12-29T13:50:10;100727.59;;;9.20;86.96
53874;BME280;62246;50.938;4.058;2022-12-29T13:55:28;100729.56;;;8.39;89.51
53874;BME280;62246;50.938;4.058;2022-12-29T13:58:05;100729.00;;;8.08;90.27
53874;BME280;62246;50.938;4.058;2022-12-29T14:01:08;100725.94;;;8.01;88.64
53874;BME280;62246;50.938;4.058;2022-12-29T14:03:48;100725.97;;;7.87;89.90
53874;BME280;62246;50.938;4.058;2022-12-29T14:08:43;100731.06;;;7.62;91.73
53874;BME280;62246;50.938;4.058;2022-12-29T14:11:11;100720.41;;;7.64;91.12
53874;BME280;62246;50.938;4.058;2022-12-29T14:13:42;100741.41;;;7.65;93.09
53874;BME280;62246;50.938;4.058;2022-12-29T14:16:24;100742.53;;;7.61;92.09
53874;BME280;62246;50.938;4.058;2022-12-29T14:18:51;100749.22;;;7.53;93.86
53874;BME280;62246;50.938;4.058;2022-12-29T14:21:21;100748.59;;;7.49;95.58
53874;BME280;62246;50.938;4.058;2022-12-29T14:23:53;100742.47;;;7.48;96.24
53874;BME280;62246;50.938;4.058;2022-12-29T14:28:54;100748.66;;;7.47;94.44
53874;BME280;62246;50.938;4.058;2022-12-29T14:37:17;100753.53;;;7.68;92.81
53874;BME280;62246;50.938;4.058;2022-12-29T14:39:46;100754.69;;;7.64;92.26
53874;BME280;62246;50.938;4.058;2022-12-29T14:42:14;100759.19;;;7.62;92.57
53874;BME280;62246;50.938;4.058;2022-12-29T14:50:06;100749.06;;;7.56;91.25
53874;BME280;62246;50.938;4.058;2022-12-29T14:53:03;100735.69;;;7.59;88.03
53874;BME280;62246;50.938;4.058;2022-12-29T14:55:46;100750.25;;;7.64;88.79
53874;BME280;62246;50.938;4.058;2022-12-29T14:58:20;100755.50;;;7.64;87.33
53874;BME280;62246;50.938;4.058;2022-12-29T15:00:48;100752.69;;;7.67;85.64
53874;BME280;62246;50.938;4.058;2022-12-29T15:05:48;100752.56;;;7.83;84.74
53874;BME280;62246;50.938;4.058;2022-12-29T15:08:25;100759.00;;;7.92;83.00
53874;BME280;62246;50.938;4.058;2022-12-29T15:10:55;100753.19;;;7.87;84.29
53874;BME280;62246;50.938;4.058;2022-12-29T15:13:34;100767.31;;;7.86;84.18
53874;BME280;62246;50.938;4.058;2022-12-29T15:15:59;100763.38;;;7.79;84.63
53874;BME280;62246;50.938;4.058;2022-12-29T15:18:30;100761.22;;;7.71;85.49